createdAt,value
2023-04-07T00:01:48.386Z,14.50
2023-04-07T00:06:50.859Z,13.88
2023-04-07T00:11:52.889Z,13.85
2023-04-07T00:16:55.220Z,14.23
2023-04-07T00:21:57.396Z,13.10
2023-04-07T00:26:59.571Z,13.63
2023-04-07T00:32:01.753Z,13.75
2023-04-07T00:37:06.232Z,13.25
2023-04-07T00:42:08.381Z,13.40
2023-04-07T00:47:10.773Z,12.77
2023-04-07T00:52:14.196Z,13.43
2023-04-07T00:57:16.441Z,10.98
2023-04-07T01:02:34.566Z,12.18
2023-04-07T01:07:53.463Z,13.13
2023-04-07T01:13:14.863Z,12.38
2023-04-07T01:18:36.745Z,12.07
2023-04-07T01:23:52.497Z,12.45
2023-04-07T01:29:31.197Z,11.75
2023-04-07T01:34:35.107Z,12.85
2023-04-07T01:39:38.630Z,12.27
2023-04-07T01:44:41.521Z,12.73
2023-04-07T01:49:45.864Z,11.82
2023-04-07T01:54:48.665Z,11.13
2023-04-07T01:59:51.160Z,12.07
2023-04-07T02:04:58.310Z,11.38
2023-04-07T02:10:03.069Z,11.70
2023-04-07T02:15:08.801Z,10.30
2023-04-07T02:20:12.385Z,11.23
2023-04-07T02:25:32.305Z,11.25
2023-04-07T02:30:35.522Z,11.52
2023-04-07T02:35:37.631Z,11.10
2023-04-07T02:40:39.730Z,10.02
2023-04-07T02:45:41.924Z,11.10
2023-04-07T02:50:44.054Z,11.05
2023-04-07T02:55:46.270Z,9.57
2023-04-07T03:00:49.649Z,9.48
2023-04-07T03:05:58.348Z,9.38
2023-04-07T03:11:01.143Z,9.52
2023-04-07T03:16:05.475Z,8.90
2023-04-07T03:21:15.525Z,10.52
2023-04-07T03:26:18.105Z,9.80
2023-04-07T03:31:20.792Z,9.63
2023-04-07T03:36:28.007Z,11.68
2023-04-07T03:41:33.733Z,11.38
2023-04-07T03:46:36.242Z,11.57
2023-04-07T03:51:38.447Z,13.55
2023-04-07T03:56:48.892Z,14.93
2023-04-07T04:01:56.392Z,14.95
2023-04-07T04:06:58.646Z,15.40
2023-04-07T04:12:12.030Z,14.80
2023-04-07T04:17:22.214Z,13.32
2023-04-07T04:22:25.264Z,16.55
2023-04-07T04:27:30.589Z,15.45
2023-04-07T04:32:42.404Z,14.98
2023-04-07T04:37:45.646Z,16.08
2023-04-07T04:42:49.381Z,16.55
2023-04-07T04:47:52.278Z,15.80
2023-04-07T04:52:54.568Z,15.80
2023-04-07T04:57:59.036Z,15.85
2023-04-07T05:03:12.451Z,15.65
2023-04-07T05:08:18.252Z,14.40
2023-04-07T05:13:20.424Z,12.73
2023-04-07T05:18:22.837Z,14.05
2023-04-07T05:23:25.417Z,13.77
2023-04-07T05:28:28.256Z,13.40
2023-04-07T05:33:34.282Z,14.38
2023-04-07T05:38:38.351Z,13.88
2023-04-07T05:43:46.914Z,13.35
2023-04-07T05:48:51.627Z,14.00
2023-04-07T05:53:54.993Z,13.73
2023-04-07T05:59:00.578Z,13.02
2023-04-07T06:04:03.656Z,12.90
2023-04-07T06:09:07.000Z,13.70
2023-04-07T06:14:10.513Z,13.23
2023-04-07T06:19:12.681Z,12.32
2023-04-07T06:24:14.954Z,12.65
2023-04-07T06:29:17.336Z,12.68
2023-04-07T06:34:19.457Z,13.05
2023-04-07T06:39:21.576Z,13.07
2023-04-07T06:44:23.811Z,12.40
2023-04-07T06:49:26.037Z,9.73
2023-04-07T06:54:31.038Z,9.80
2023-04-07T06:59:33.097Z,10.32
2023-04-07T07:04:40.992Z,11.02
2023-04-07T07:09:45.318Z,10.15
2023-04-07T07:14:47.406Z,9.03
2023-04-07T07:19:49.642Z,8.00
2023-04-07T07:24:51.744Z,5.97
2023-04-07T07:29:54.024Z,5.95
2023-04-07T07:34:56.221Z,4.28
2023-04-07T07:39:58.577Z,3.30
2023-04-07T07:45:00.785Z,3.70
2023-04-07T07:50:04.406Z,3.75
2023-04-07T07:55:06.812Z,3.22
2023-04-07T08:00:09.568Z,3.33
2023-04-07T08:05:17.229Z,3.42
2023-04-07T08:10:20.204Z,3.55
2023-04-07T08:15:22.319Z,3.42
2023-04-07T08:20:24.420Z,2.88
2023-04-07T08:25:26.442Z,2.28
2023-04-07T08:30:28.687Z,2.20
2023-04-07T08:35:30.763Z,2.17
2023-04-07T08:40:33.596Z,2.70
2023-04-07T08:45:39.055Z,2.13
2023-04-07T08:50:44.034Z,2.30
2023-04-07T08:55:46.187Z,2.20
2023-04-07T09:00:49.313Z,2.08
2023-04-07T09:05:51.584Z,2.03
2023-04-07T09:10:54.838Z,1.92
2023-04-07T09:15:57.830Z,2.10
2023-04-07T09:21:02.586Z,1.95
2023-04-07T09:26:27.316Z,2.20
2023-04-07T09:31:49.965Z,1.63
2023-04-07T09:36:52.532Z,1.80
2023-04-07T09:41:55.019Z,1.52
2023-04-07T09:46:59.079Z,1.73
2023-04-07T09:52:07.661Z,1.70
2023-04-07T09:57:11.989Z,1.80
2023-04-07T10:02:14.399Z,2.10
2023-04-07T10:07:19.710Z,2.33
2023-04-07T10:12:22.208Z,1.80
2023-04-07T10:17:28.692Z,2.33
2023-04-07T10:22:34.712Z,1.98
2023-04-07T10:27:51.680Z,2.10
2023-04-07T10:32:55.046Z,2.38
2023-04-07T10:38:16.527Z,1.90
2023-04-07T10:48:39.650Z,1.92
2023-04-07T10:54:22.341Z,2.08
2023-04-07T10:59:27.817Z,1.80
2023-04-07T11:04:37.848Z,1.98
2023-04-07T11:09:40.856Z,1.73
2023-04-07T11:14:43.190Z,1.73
2023-04-07T11:19:52.971Z,1.45
2023-04-07T11:24:55.397Z,1.73
2023-04-07T11:29:57.665Z,1.70
2023-04-07T11:35:00.024Z,2.00
2023-04-07T11:40:02.189Z,1.70
2023-04-07T11:45:07.737Z,2.00
2023-04-07T11:50:12.174Z,1.90
2023-04-07T11:55:24.295Z,2.08
2023-04-07T12:00:27.291Z,1.73
2023-04-07T12:05:42.614Z,1.63
2023-04-07T12:10:45.790Z,2.42
2023-04-07T12:15:48.271Z,1.90
2023-04-07T12:20:50.764Z,1.80
2023-04-07T12:25:59.844Z,2.20
2023-04-07T12:31:07.221Z,2.05
2023-04-07T12:36:09.531Z,1.88
2023-04-07T12:41:11.898Z,2.13
2023-04-07T12:46:14.441Z,2.38
2023-04-07T12:51:16.607Z,2.15
2023-04-07T12:56:18.773Z,2.20
2023-04-07T13:01:21.529Z,2.38
2023-04-07T13:06:24.442Z,1.90
2023-04-07T13:11:27.248Z,2.83
2023-04-07T13:16:29.601Z,2.10
2023-04-07T13:21:44.268Z,2.13
2023-04-07T13:26:52.634Z,2.70
2023-04-07T13:32:04.985Z,2.58
2023-04-07T13:37:07.244Z,2.97
2023-04-07T13:42:11.468Z,2.20
2023-04-07T13:47:19.389Z,2.50
2023-04-07T13:52:21.819Z,2.08
2023-04-07T13:57:23.908Z,2.30
2023-04-07T14:02:29.527Z,1.98
2023-04-07T14:07:31.828Z,1.80
2023-04-07T14:12:34.448Z,2.28
2023-04-07T14:17:37.202Z,2.10
2023-04-07T14:22:39.357Z,1.65
2023-04-07T14:27:41.590Z,2.08
2023-04-07T14:32:43.806Z,1.90
2023-04-07T14:37:45.952Z,2.10
2023-04-07T14:42:48.691Z,2.20
2023-04-07T14:47:51.281Z,1.88
2023-04-07T14:52:53.676Z,1.67
2023-04-07T14:57:55.964Z,1.88
2023-04-07T15:02:58.303Z,2.22
2023-04-07T15:08:01.308Z,1.70
2023-04-07T15:13:03.627Z,2.20
2023-04-07T15:18:05.699Z,2.20
2023-04-07T15:23:08.144Z,2.33
2023-04-07T15:28:10.320Z,2.10
2023-04-07T15:33:12.539Z,2.22
2023-04-07T15:38:14.751Z,1.90
2023-04-07T15:43:17.049Z,2.08
2023-04-07T15:48:19.184Z,2.08
2023-04-07T15:53:21.544Z,2.50
2023-04-07T15:58:23.712Z,2.75
2023-04-07T16:03:28.167Z,2.80
2023-04-07T16:08:30.513Z,2.22
2023-04-07T16:13:32.543Z,2.53
2023-04-07T16:18:34.637Z,2.70
2023-04-07T16:23:36.748Z,2.72
2023-04-07T16:28:41.800Z,3.47
2023-04-07T16:33:46.689Z,3.25
2023-04-07T16:38:50.974Z,2.85
2023-04-07T16:43:53.242Z,3.08
2023-04-07T16:48:55.770Z,3.15
2023-04-07T16:53:57.994Z,3.15
2023-04-07T16:59:01.973Z,4.22
2023-04-07T17:04:05.639Z,3.55
2023-04-07T17:09:07.742Z,3.30
2023-04-07T17:14:09.929Z,3.15
2023-04-07T17:19:12.109Z,3.95
2023-04-07T17:24:17.161Z,3.88
2023-04-07T17:29:20.951Z,3.45
2023-04-07T17:34:23.115Z,3.47
2023-04-07T17:39:25.616Z,3.33
2023-04-07T17:44:27.735Z,2.95
2023-04-07T17:49:30.421Z,3.20
2023-04-07T17:54:33.826Z,3.00
2023-04-07T17:59:35.907Z,4.78
2023-04-07T18:04:38.609Z,5.53
2023-04-07T18:09:42.738Z,3.53
2023-04-07T18:14:44.915Z,5.10
2023-04-07T18:19:47.417Z,4.20
2023-04-07T18:24:51.484Z,4.07
2023-04-07T18:29:54.724Z,5.90
2023-04-07T18:34:57.114Z,5.00
2023-04-07T18:39:59.359Z,5.72
2023-04-07T18:45:01.586Z,5.93
2023-04-07T18:50:05.051Z,5.75
2023-04-07T18:55:08.713Z,5.20
2023-04-07T19:00:10.954Z,5.57
2023-04-07T19:05:13.176Z,6.05
2023-04-07T19:10:15.453Z,6.00
2023-04-07T19:15:17.612Z,5.25
2023-04-07T19:20:19.694Z,6.68
2023-04-07T19:25:21.853Z,5.90
2023-04-07T19:30:24.164Z,6.10
2023-04-07T19:35:27.070Z,5.60
2023-04-07T19:40:31.429Z,6.20
2023-04-07T19:45:33.794Z,7.20
2023-04-07T19:50:42.913Z,7.25
2023-04-07T19:55:46.144Z,7.32
2023-04-07T20:00:51.666Z,7.50
2023-04-07T20:05:54.339Z,7.75
2023-04-07T20:10:56.570Z,5.97
2023-04-07T20:15:59.176Z,8.15
2023-04-07T20:21:02.659Z,9.15
2023-04-07T20:26:04.848Z,8.70
2023-04-07T20:31:07.120Z,9.00
2023-04-07T20:36:09.241Z,6.93
2023-04-07T20:41:16.521Z,8.35
2023-04-07T20:46:19.275Z,8.60
2023-04-07T20:51:22.076Z,8.10
2023-04-07T20:56:24.452Z,7.63
2023-04-07T21:01:26.639Z,9.10
2023-04-07T21:06:28.814Z,7.88
2023-04-07T21:11:31.209Z,9.35
2023-04-07T21:16:33.594Z,8.65
2023-04-07T21:21:35.601Z,9.90
2023-04-07T21:26:37.789Z,7.18
2023-04-07T21:31:40.989Z,10.23
2023-04-07T21:36:43.526Z,8.93
2023-04-07T21:41:46.347Z,6.55
2023-04-07T21:46:48.700Z,10.35
2023-04-07T21:51:50.976Z,10.40
2023-04-07T21:56:53.272Z,10.98
2023-04-07T22:01:55.887Z,8.65
2023-04-07T22:06:58.551Z,11.15
2023-04-07T22:12:00.769Z,10.43
2023-04-07T22:17:04.017Z,9.32
2023-04-07T22:22:08.020Z,14.80
2023-04-07T22:27:10.412Z,21.30
2023-04-07T22:32:13.532Z,12.82
2023-04-07T22:37:15.656Z,13.65
2023-04-07T22:42:17.712Z,14.23
2023-04-07T22:47:21.232Z,12.88
2023-04-07T22:52:23.411Z,15.98
2023-04-07T22:57:28.486Z,15.85
2023-04-07T23:02:30.648Z,15.88
2023-04-07T23:07:32.896Z,16.73
2023-04-07T23:12:35.099Z,18.38
2023-04-07T23:17:37.153Z,18.60
2023-04-07T23:22:39.299Z,18.92
2023-04-07T23:27:41.379Z,19.25
2023-04-07T23:32:43.450Z,19.73
2023-04-07T23:37:45.517Z,18.98
2023-04-07T23:42:47.757Z,20.50
2023-04-07T23:47:49.820Z,20.95
2023-04-07T23:52:51.932Z,19.80
2023-04-07T23:57:54.287Z,23.08
